Humanes de Madrid, Spain
Current Conditions -  °F | °C
As of 4:00 PM on Friday 24 Oct 2014 (Local Time) from LEGT Reporting Station
Clear Clear  
Wind Chill: 81°   Ceiling: Unl
Heat Index: 81°   Visibility: 6mi
Dew Point: 43°   Wind: 10mph
Humidity: 26%   Direction: 40°NE
Pressure: 30.09"   Gusts: NA
Location:  40.25°N, 3.83°W
Report Text: LEGT 241400Z 04009KT 360V090 CAVOK 27/06 Q1019
Loading
Personal Weather Stations






























Interactive Weather Map
Tropical Storm Tracking
New forecast layout! Learn more

10-Day Weather Forecast

Advertisements
Track Severe Weather on mobile